createdAt,value
2022-10-23T00:01:58.928Z,1021.2
2022-10-23T00:06:58.945Z,1021.3
2022-10-23T00:11:59.257Z,1021.4
2022-10-23T00:16:59.303Z,1021.5
2022-10-23T00:21:58.933Z,1021.5
2022-10-23T00:26:58.947Z,1021.6
2022-10-23T00:31:59.059Z,1021.7
2022-10-23T00:36:59.026Z,1021.7
2022-10-23T00:41:58.946Z,1021.6
2022-10-23T00:46:58.982Z,1021.7
2022-10-23T00:51:58.928Z,1021.6
2022-10-23T00:56:59.126Z,1021.5
2022-10-23T01:01:59.045Z,1021.5
2022-10-23T01:06:58.928Z,1021.5
2022-10-23T01:11:59.411Z,1021.7
2022-10-23T01:16:58.966Z,1021.7
2022-10-23T01:21:58.763Z,1021.7
2022-10-23T01:26:59.046Z,1021.8
2022-10-23T01:31:58.909Z,1021.8
2022-10-23T01:36:59.023Z,1021.9
2022-10-23T01:41:58.760Z,1021.8
2022-10-23T01:46:58.829Z,1021.8
2022-10-23T01:51:58.849Z,1021.7
2022-10-23T01:56:58.985Z,1021.8
2022-10-23T02:01:58.873Z,1021.8
2022-10-23T02:06:58.741Z,1021.8
2022-10-23T02:11:58.913Z,1021.8
2022-10-23T02:16:58.806Z,1021.8
2022-10-23T02:21:58.733Z,1021.8
2022-10-23T02:26:58.869Z,1021.9
2022-10-23T02:31:58.720Z,1021.9
2022-10-23T02:36:58.768Z,1021.8
2022-10-23T02:41:58.846Z,1021.9
2022-10-23T02:46:58.895Z,1022.1
2022-10-23T02:51:58.665Z,1022.0
2022-10-23T02:56:58.704Z,1022.0
2022-10-23T03:01:58.783Z,1022.0
2022-10-23T03:06:58.666Z,1022.0
2022-10-23T03:11:58.752Z,1022.1
2022-10-23T03:16:58.603Z,1022.2
2022-10-23T03:21:58.629Z,1022.3
2022-10-23T03:26:58.883Z,1022.2
2022-10-23T03:31:58.667Z,1022.2
2022-10-23T03:36:58.568Z,1022.2
2022-10-23T03:41:58.779Z,1022.3
2022-10-23T03:46:58.704Z,1022.3
2022-10-23T03:51:58.698Z,1022.3
2022-10-23T03:56:58.538Z,1022.2
2022-10-23T04:01:58.777Z,1022.3
2022-10-23T04:06:58.579Z,1022.4
2022-10-23T04:11:58.884Z,1022.4
2022-10-23T04:16:58.654Z,1022.5
2022-10-23T04:21:58.643Z,1022.4
2022-10-23T04:26:58.516Z,1022.4
2022-10-23T04:31:58.608Z,1022.3
2022-10-23T04:36:58.469Z,1022.3
2022-10-23T04:41:58.460Z,1022.2
2022-10-23T04:46:58.616Z,1022.1
2022-10-23T04:51:58.474Z,1022.2
2022-10-23T04:56:58.671Z,1022.2
2022-10-23T05:01:58.615Z,1022.2
2022-10-23T05:06:58.489Z,1022.2
2022-10-23T05:11:58.667Z,1022.2
2022-10-23T05:16:59.636Z,1022.2
2022-10-23T05:21:58.396Z,1022.2
2022-10-23T05:26:58.447Z,1022.2
2022-10-23T05:31:58.379Z,1022.3
2022-10-23T05:36:58.600Z,1022.4
2022-10-23T05:41:58.641Z,1022.4
2022-10-23T05:46:58.555Z,1022.3
2022-10-23T05:51:58.378Z,1022.4
2022-10-23T05:56:58.828Z,1022.5
2022-10-23T06:01:58.685Z,1022.5
2022-10-23T06:06:58.423Z,1022.5
2022-10-23T06:11:58.360Z,1022.7
2022-10-23T06:16:58.418Z,1022.9
2022-10-23T06:21:59.617Z,1022.8
2022-10-23T06:26:58.496Z,1022.9
2022-10-23T06:31:58.335Z,1023.0
2022-10-23T06:36:58.335Z,1023.0
2022-10-23T06:41:58.592Z,1023.0
2022-10-23T06:46:58.317Z,1023.1
2022-10-23T06:51:58.248Z,1023.1
2022-10-23T06:56:58.423Z,1023.1
2022-10-23T07:01:58.366Z,1023.1
2022-10-23T07:06:58.330Z,1023.1
2022-10-23T07:11:58.212Z,1023.2
2022-10-23T07:16:58.293Z,1023.2
2022-10-23T07:21:58.288Z,1023.1
2022-10-23T07:26:58.374Z,1023.1
2022-10-23T07:31:58.263Z,1023.1
2022-10-23T07:36:58.219Z,1023.0
2022-10-23T07:41:58.344Z,1023.0
2022-10-23T07:46:58.178Z,1023.1
2022-10-23T07:51:58.354Z,1023.1
2022-10-23T07:56:58.307Z,1023.0
2022-10-23T08:01:58.517Z,1023.0
2022-10-23T08:06:58.127Z,1023.0
2022-10-23T08:11:58.127Z,1023.0
2022-10-23T08:16:58.298Z,1023.1
2022-10-23T08:21:58.142Z,1023.3
2022-10-23T08:26:58.327Z,1023.1
2022-10-23T08:31:58.152Z,1023.3
2022-10-23T08:36:58.189Z,1023.1
2022-10-23T08:41:58.350Z,1023.1
2022-10-23T08:46:58.157Z,1023.0
2022-10-23T08:51:58.232Z,1023.1
2022-10-23T08:56:58.206Z,1023.1
2022-10-23T09:01:58.233Z,1023.2
2022-10-23T09:06:58.128Z,1023.2
2022-10-23T09:11:58.323Z,1023.3
2022-10-23T09:16:58.056Z,1023.5
2022-10-23T09:21:58.070Z,1023.5
2022-10-23T09:26:58.243Z,1023.5
2022-10-23T09:31:58.264Z,1023.5
2022-10-23T09:36:58.194Z,1023.5
2022-10-23T09:41:58.186Z,1023.6
2022-10-23T09:46:58.093Z,1023.5
2022-10-23T09:51:58.017Z,1023.5
2022-10-23T09:56:58.361Z,1023.5
2022-10-23T10:01:58.403Z,1023.5
2022-10-23T10:06:58.177Z,1023.6
2022-10-23T10:11:58.220Z,1023.6
2022-10-23T10:16:57.949Z,1023.6
2022-10-23T10:21:58.392Z,1023.6
2022-10-23T10:26:58.222Z,1023.5
2022-10-23T10:31:59.837Z,1023.4
2022-10-23T10:36:57.989Z,1023.4
2022-10-23T10:41:58.132Z,1023.3
2022-10-23T10:46:58.112Z,1023.3
2022-10-23T10:51:58.109Z,1023.2
2022-10-23T10:56:58.165Z,1023.2
2022-10-23T11:01:58.286Z,1023.0
2022-10-23T11:06:58.287Z,1022.9
2022-10-23T11:11:57.852Z,1022.8
2022-10-23T11:16:57.882Z,1022.9
2022-10-23T11:21:59.463Z,1022.7
2022-10-23T11:26:57.965Z,1022.6
2022-10-23T11:31:57.872Z,1022.5
2022-10-23T11:36:58.026Z,1022.5
2022-10-23T11:41:58.031Z,1022.4
2022-10-23T11:46:57.885Z,1022.3
2022-10-23T11:51:57.855Z,1022.3
2022-10-23T12:01:59.680Z,1022.2
2022-10-23T12:07:05.918Z,1022.0
2022-10-23T12:11:57.958Z,1021.9
2022-10-23T12:16:57.914Z,1021.8
2022-10-23T12:21:57.966Z,1021.7
2022-10-23T12:26:59.128Z,1021.7
2022-10-23T12:31:59.460Z,1021.7
2022-10-23T12:36:58.009Z,1021.9
2022-10-23T12:41:57.787Z,1021.9
2022-10-23T12:46:57.739Z,1021.8
2022-10-23T12:51:57.853Z,1021.8
2022-10-23T12:56:59.554Z,1021.7
2022-10-23T13:01:57.784Z,1021.6
2022-10-23T13:06:57.802Z,1021.6
2022-10-23T13:11:57.839Z,1021.6
2022-10-23T13:16:57.741Z,1021.6
2022-10-23T13:21:57.999Z,1021.6
2022-10-23T13:26:59.269Z,1021.5
2022-10-23T13:31:57.674Z,1021.6
2022-10-23T13:36:57.683Z,1021.5
2022-10-23T13:46:59.325Z,1021.5
2022-10-23T13:51:57.673Z,1021.3
2022-10-23T13:56:57.651Z,1021.3
2022-10-23T14:01:57.986Z,1021.3
2022-10-23T14:12:02.564Z,1021.2
2022-10-23T14:16:58.685Z,1021.1
2022-10-23T14:21:58.097Z,1021.1
2022-10-23T14:26:57.919Z,1021.2
2022-10-23T14:31:59.811Z,1021.1
2022-10-23T14:37:08.241Z,1021.1
2022-10-23T14:42:00.002Z,1021.1
2022-10-23T14:46:59.803Z,1021.1
2022-10-23T14:51:58.040Z,1021.1
2022-10-23T14:56:58.476Z,1021.0
2022-10-23T15:01:58.413Z,1020.9
2022-10-23T15:07:00.071Z,1020.9
2022-10-23T15:11:57.972Z,1021.0
2022-10-23T15:16:57.735Z,1021.0
2022-10-23T15:21:57.920Z,1020.9
2022-10-23T15:26:58.261Z,1020.9
2022-10-23T15:31:58.933Z,1020.9
2022-10-23T15:36:58.698Z,1020.9
2022-10-23T15:41:58.794Z,1020.9
2022-10-23T15:46:58.789Z,1020.9
2022-10-23T15:51:58.066Z,1020.8
2022-10-23T15:56:57.781Z,1020.9
2022-10-23T16:01:59.831Z,1020.8
2022-10-23T16:06:58.168Z,1020.9
2022-10-23T16:11:58.794Z,1020.9
2022-10-23T16:16:57.494Z,1021.0
2022-10-23T16:22:03.595Z,1021.0
2022-10-23T16:26:57.996Z,1021.1
2022-10-23T16:31:57.520Z,1021.0
2022-10-23T16:36:57.575Z,1021.1
2022-10-23T16:41:59.802Z,1021.1
2022-10-23T16:46:59.034Z,1021.2
2022-10-23T16:51:58.756Z,1021.2
2022-10-23T16:56:58.615Z,1021.2
2022-10-23T17:01:58.593Z,1021.2
2022-10-23T17:06:58.383Z,1021.3
2022-10-23T17:11:58.134Z,1021.4
2022-10-23T17:16:59.261Z,1021.4
2022-10-23T17:21:58.589Z,1021.5
2022-10-23T17:26:58.552Z,1021.6
2022-10-23T17:31:58.793Z,1021.5
2022-10-23T17:36:58.535Z,1021.3
2022-10-23T17:41:57.861Z,1021.5
2022-10-23T17:47:00.080Z,1021.4
2022-10-23T18:01:58.317Z,1021.1
2022-10-23T18:06:59.360Z,1021.0
2022-10-23T18:12:01.259Z,1021.0
2022-10-23T18:16:57.362Z,1021.0
2022-10-23T18:21:58.216Z,1021.0
2022-10-23T18:26:57.732Z,1020.9
2022-10-23T18:31:59.300Z,1021.0
2022-10-23T18:36:59.792Z,1020.9
2022-10-23T18:41:57.342Z,1020.9
2022-10-23T18:46:57.504Z,1020.9
2022-10-23T18:51:57.485Z,1020.9
2022-10-23T18:56:57.206Z,1020.8
2022-10-23T19:01:57.700Z,1020.8
2022-10-23T19:06:57.687Z,1020.8
2022-10-23T19:11:57.214Z,1020.7
2022-10-23T19:16:57.250Z,1020.6
2022-10-23T19:21:57.461Z,1020.5
2022-10-23T19:26:57.190Z,1020.5
2022-10-23T19:31:57.615Z,1020.5
2022-10-23T19:36:57.649Z,1020.6
2022-10-23T19:41:57.383Z,1020.7
2022-10-23T19:46:57.224Z,1020.6
2022-10-23T19:51:59.080Z,1020.6
2022-10-23T19:56:57.738Z,1020.7
2022-10-23T20:01:57.349Z,1020.6
2022-10-23T20:07:03.691Z,1020.7
2022-10-23T20:11:59.129Z,1020.6
2022-10-23T20:16:57.020Z,1020.4
2022-10-23T20:21:57.562Z,1020.4
2022-10-23T20:26:56.984Z,1020.4
2022-10-23T20:31:58.127Z,1020.2
2022-10-23T20:36:57.177Z,1020.3
2022-10-23T20:41:57.251Z,1020.3
2022-10-23T20:46:56.957Z,1020.2
2022-10-23T20:51:56.987Z,1020.2
2022-10-23T20:56:56.910Z,1020.1
2022-10-23T21:01:57.034Z,1020.0
2022-10-23T21:07:09.340Z,1019.9
2022-10-23T21:11:57.067Z,1020.1
2022-10-23T21:16:58.636Z,1020.1
2022-10-23T21:21:56.939Z,1020.1
2022-10-23T21:26:57.020Z,1020.0
2022-10-23T21:31:57.036Z,1020.1
2022-10-23T21:37:12.845Z,1020.1
2022-10-23T21:41:58.150Z,1020.2
2022-10-23T21:46:58.091Z,1020.1
2022-10-23T21:51:56.866Z,1020.0
2022-10-23T21:56:56.867Z,1019.9
2022-10-23T22:01:57.138Z,1019.7
2022-10-23T22:06:56.818Z,1019.8
2022-10-23T22:11:56.851Z,1019.6
2022-10-23T22:16:56.927Z,1019.5
2022-10-23T22:21:56.806Z,1019.5
2022-10-23T22:26:56.855Z,1019.5
2022-10-23T22:31:57.008Z,1019.5
2022-10-23T22:36:56.964Z,1019.5
2022-10-23T22:41:56.819Z,1019.4
2022-10-23T22:46:56.878Z,1019.3
2022-10-23T22:51:56.726Z,1019.2
2022-10-23T22:56:56.705Z,1019.4
2022-10-23T23:01:56.903Z,1019.3
2022-10-23T23:06:56.741Z,1019.4
2022-10-23T23:11:56.768Z,1019.3
2022-10-23T23:16:56.888Z,1019.2
2022-10-23T23:21:56.828Z,1019.2
2022-10-23T23:26:56.998Z,1019.3
2022-10-23T23:31:56.929Z,1019.1
2022-10-23T23:36:56.648Z,1019.1
2022-10-23T23:41:56.797Z,1019.1
2022-10-23T23:46:56.743Z,1019.1
2022-10-23T23:51:56.823Z,1019.0
2022-10-23T23:56:56.772Z,1019.1
